Time;durP1;ratioP1;P1;durP2;ratioP2;P2;SDS_P1;SDS_P2;PMS_P1;PMS_P2;Temp;Humidity;BMP_temperature;BMP_pressure;BME280_temperature;BME280_humidity;BME280_pressure;Samples;Min_cycle;Max_cycle;Signal;HPM_P1;HPM_P2
2021/07/19 00:00:43;;;;;;;33.53;21.02;;;;;;;22.26;71.83;100196.44;1895562;74;21108;-63
2021/07/19 00:03:12;;;;;;;34.18;19.98;;;;;;;22.23;71.95;100187.81;1895608;76;21128;-63
2021/07/19 00:05:41;;;;;;;32.90;20.80;;;;;;;22.18;71.92;100186.91;1895618;75;21543;-63
2021/07/19 00:08:10;;;;;;;31.15;20.48;;;;;;;22.16;71.90;100180.34;1895625;76;21152;-63
2021/07/19 00:10:39;;;;;;;28.57;20.50;;;;;;;22.15;71.75;100189.87;1934736;74;21080;-63
2021/07/19 00:13:08;;;;;;;30.82;21.10;;;;;;;22.11;71.89;100185.80;1936797;74;21479;-63
2021/07/19 00:15:36;;;;;;;33.23;22.98;;;;;;;22.11;71.84;100184.47;1937001;74;21090;-63
2021/07/19 00:18:05;;;;;;;30.25;22.45;;;;;;;22.08;72.04;100188.30;1936972;74;21033;-63
2021/07/19 00:20:34;;;;;;;30.62;21.05;;;;;;;22.05;72.07;100195.80;1936974;74;21057;-63
2021/07/19 00:23:02;;;;;;;30.85;21.12;;;;;;;22.01;72.17;100198.42;1937113;74;21033;-62
2021/07/19 00:25:31;;;;;;;26.87;18.87;;;;;;;22.00;72.02;100198.06;1936975;74;21060;-63
2021/07/19 00:28:00;;;;;;;28.67;18.73;;;;;;;21.98;72.08;100195.05;1937098;74;21587;-63
2021/07/19 00:30:29;;;;;;;26.27;19.77;;;;;;;21.97;71.97;100193.34;1937101;73;21007;-62
2021/07/19 00:32:58;;;;;;;27.42;21.05;;;;;;;21.93;72.19;100201.34;1937067;74;21060;-63
2021/07/19 00:35:28;;;;;;;30.48;19.87;;;;;;;21.89;72.28;100196.41;1937063;74;21089;-63
2021/07/19 00:37:57;;;;;;;29.60;20.52;;;;;;;21.86;72.18;100215.48;1937012;74;21033;-64
2021/07/19 00:40:28;;;;;;;28.77;18.55;;;;;;;21.83;72.23;100213.91;1937304;73;20990;-63
2021/07/19 00:42:58;;;;;;;26.65;19.50;;;;;;;21.80;72.13;100211.55;1937168;74;21005;-63
2021/07/19 00:45:28;;;;;;;32.85;20.62;;;;;;;21.79;72.12;100213.86;1937107;74;21135;-63
2021/07/19 00:47:59;;;;;;;31.33;19.02;;;;;;;21.78;72.00;100206.80;1937190;74;21024;-63
2021/07/19 00:50:32;;;;;;;27.07;17.52;;;;;;;21.74;72.15;100207.58;1936983;73;21053;-63
2021/07/19 00:53:01;;;;;;;26.85;19.20;;;;;;;21.70;72.38;100208.88;1937189;73;21154;-63
2021/07/19 00:55:38;;;;;;;24.20;17.25;;;;;;;21.66;72.40;100214.68;1937178;74;21425;-63
2021/07/19 00:58:10;;;;;;;29.42;19.00;;;;;;;21.63;72.34;100210.44;1935648;74;21061;-63
2021/07/19 01:00:41;;;;;;;23.52;16.48;;;;;;;21.61;72.43;100210.24;1937259;74;21049;-63
2021/07/19 01:03:12;;;;;;;25.40;17.05;;;;;;;21.58;72.51;100216.74;1937023;74;21076;-63
2021/07/19 01:05:44;;;;;;;27.50;18.82;;;;;;;21.58;72.26;100218.92;1937421;73;21131;-63
2021/07/19 01:08:14;;;;;;;26.62;16.65;;;;;;;21.54;72.67;100212.17;1937240;74;21009;-63
2021/07/19 01:10:45;;;;;;;27.55;16.77;;;;;;;21.50;72.62;100208.06;1909940;74;21141;-63
2021/07/19 01:13:13;;;;;;;27.30;17.82;;;;;;;21.48;72.62;100214.06;1895658;75;21030;-63
2021/07/19 01:15:44;;;;;;;28.35;17.65;;;;;;;21.47;72.50;100211.05;1895778;74;21070;-63
2021/07/19 01:18:13;;;;;;;24.75;16.55;;;;;;;21.45;72.67;100211.69;1895707;76;21477;-63
2021/07/19 01:21:02;;;;;;;27.30;18.40;;;;;;;21.38;72.84;100213.21;1895789;76;21191;-63
2021/07/19 01:23:34;;;;;;;25.40;17.37;;;;;;;21.36;72.87;100215.19;1895810;76;21542;-63
2021/07/19 01:26:25;;;;;;;25.37;17.48;;;;;;;21.30;73.09;100215.73;1895532;76;21133;-63
2021/07/19 01:28:56;;;;;;;26.33;18.20;;;;;;;21.26;73.11;100218.36;1895615;75;21038;-63
2021/07/19 01:31:34;;;;;;;27.30;17.45;;;;;;;21.18;73.39;100222.58;1895797;76;21058;-63
2021/07/19 01:34:06;;;;;;;25.30;17.50;;;;;;;21.15;73.36;100214.82;1895691;76;21104;-63
2021/07/19 01:36:37;;;;;;;25.35;17.35;;;;;;;21.15;73.16;100217.50;1893956;75;21654;-63
2021/07/19 01:39:26;;;;;;;28.77;18.35;;;;;;;21.15;73.08;100213.48;1895482;75;21090;-63
2021/07/19 01:41:59;;;;;;;25.05;17.27;;;;;;;21.13;73.14;100219.47;1895881;75;21038;-63
2021/07/19 01:44:29;;;;;;;25.85;17.10;;;;;;;21.10;73.17;100222.45;1895832;76;21027;-63
2021/07/19 01:47:06;;;;;;;28.12;17.55;;;;;;;21.11;73.18;100220.61;1895620;76;21086;-63
2021/07/19 01:49:33;;;;;;;30.52;18.10;;;;;;;21.10;73.25;100220.25;1895687;75;21015;-63
2021/07/19 01:52:03;;;;;;;26.52;17.25;;;;;;;21.07;73.38;100230.75;1895686;76;21548;-63
2021/07/19 01:54:33;;;;;;;28.35;17.07;;;;;;;21.06;73.38;100229.55;1895763;76;21152;-63
2021/07/19 01:57:06;;;;;;;24.00;16.75;;;;;;;21.04;73.37;100236.38;1895754;75;21042;-64
2021/07/19 01:59:36;;;;;;;24.50;15.28;;;;;;;21.07;73.18;100237.95;1895808;74;21022;-63
2021/07/19 02:02:10;;;;;;;28.87;16.10;;;;;;;21.07;73.16;100236.61;1894321;74;21072;-63
2021/07/19 02:04:39;;;;;;;27.42;17.12;;;;;;;21.08;73.06;100233.80;1895863;76;21104;-62
2021/07/19 02:07:09;;;;;;;25.32;15.65;;;;;;;21.06;73.15;100234.41;1895726;75;21035;-63
2021/07/19 02:09:40;;;;;;;23.25;16.48;;;;;;;21.06;73.00;100240.26;1895575;75;21129;-64
2021/07/19 02:12:11;;;;;;;26.02;16.93;;;;;;;21.06;73.06;100238.92;1929963;73;21060;-62
2021/07/19 02:14:43;;;;;;;20.52;15.45;;;;;;;21.04;73.14;100248.92;1933552;74;21543;-63
2021/07/19 02:17:15;;;;;;;29.77;16.07;;;;;;;21.04;73.07;100244.41;1933640;74;21064;-63
2021/07/19 02:19:48;;;;;;;25.20;16.10;;;;;;;21.03;73.12;100251.27;1934178;73;21065;-63
2021/07/19 02:22:20;;;;;;;22.05;15.98;;;;;;;21.03;73.12;100250.77;1933684;74;21089;-63
2021/07/19 02:25:12;;;;;;;22.70;15.93;;;;;;;21.03;73.15;100248.59;1932757;74;21092;-63
2021/07/19 02:27:45;;;;;;;23.30;16.40;;;;;;;21.04;73.00;100254.28;1930563;74;21136;-63
2021/07/19 02:30:16;;;;;;;27.27;16.42;;;;;;;21.06;72.85;100255.81;1934159;74;21472;-63
2021/07/19 02:32:53;;;;;;;22.23;15.33;;;;;;;21.09;72.69;100253.38;1934274;74;21077;-63
2021/07/19 02:35:28;;;;;;;25.27;14.78;;;;;;;21.14;72.62;100253.80;1934129;74;21025;-63
2021/07/19 02:38:01;;;;;;;21.25;14.18;;;;;;;21.23;72.50;100256.11;1934081;74;21122;-62
2021/07/19 02:40:34;;;;;;;21.40;14.28;;;;;;;21.34;72.28;100257.30;1932401;74;21649;-63
2021/07/19 02:43:06;;;;;;;19.75;13.83;;;;;;;21.45;72.06;100254.54;1934153;74;21009;-63
2021/07/19 02:45:41;;;;;;;20.13;13.37;;;;;;;21.58;71.76;100252.41;1934313;74;21111;-62
2021/07/19 02:48:13;;;;;;;20.50;13.70;;;;;;;21.71;71.43;100250.77;1900411;74;21103;-62
2021/07/19 02:50:43;;;;;;;;;;;;;;;21.77;70.82;100257.37;1936599;74;21111;-63
2021/07/19 02:53:15;;;;;;;18.65;13.62;;;;;;;21.79;70.61;100254.05;1934273;74;20427;-63
2021/07/19 02:55:45;;;;;;;23.35;12.93;;;;;;;21.88;70.38;100253.69;1933904;74;22034;-63
2021/07/19 02:58:17;;;;;;;19.02;13.08;;;;;;;21.93;70.20;100258.97;1934132;74;21044;-63
2021/07/19 03:00:48;;;;;;;19.40;13.10;;;;;;;22.05;70.12;100260.97;1934193;74;21068;-63
2021/07/19 03:03:29;;;;;;;19.95;13.08;;;;;;;22.22;69.88;100259.34;1934249;74;21069;-63
2021/07/19 03:06:04;;;;;;;21.23;13.58;;;;;;;22.38;69.48;100255.25;1933974;74;21127;-64
2021/07/19 03:08:37;;;;;;;19.67;13.43;;;;;;;22.47;68.73;100246.30;1934087;74;21093;-62
2021/07/19 03:11:13;;;;;;;21.33;12.93;;;;;;;22.60;68.38;100254.84;1933834;73;21530;-63
2021/07/19 03:13:44;;;;;;;;;;;;;;;22.84;67.81;100249.41;1935607;74;21101;-62
2021/07/19 03:16:15;;;;;;;21.60;13.62;;;;;;;22.93;67.38;100249.84;1937106;73;20122;-64
2021/07/19 03:18:45;;;;;;;21.68;13.75;;;;;;;22.94;67.40;100252.86;1937258;73;21033;-62
2021/07/19 03:21:17;;;;;;;21.10;13.88;;;;;;;22.96;67.18;100254.88;1937005;74;21549;-62
2021/07/19 03:23:49;;;;;;;22.32;13.75;;;;;;;23.00;67.27;100256.30;1935827;74;21090;-62
2021/07/19 03:26:21;;;;;;;17.92;12.18;;;;;;;23.11;67.26;100253.41;1903530;74;21013;-62
2021/07/19 03:28:53;;;;;;;22.27;12.82;;;;;;;23.28;67.36;100252.22;1936783;74;21099;-63
2021/07/19 03:31:24;;;;;;;18.32;13.68;;;;;;;23.40;66.88;100253.66;1936904;74;21555;-62
2021/07/19 03:33:54;;;;;;;21.27;14.30;;;;;;;23.51;66.72;100261.47;1937204;74;21123;-62
2021/07/19 03:36:26;;;;;;;19.32;12.37;;;;;;;23.61;66.54;100257.36;1936807;74;21041;-62
2021/07/19 03:38:57;;;;;;;21.77;13.93;;;;;;;23.65;66.47;100260.08;1937158;74;21479;-62
2021/07/19 03:41:32;;;;;;;19.80;13.62;;;;;;;23.68;66.64;100254.88;1935874;74;21037;-62
2021/07/19 03:44:04;;;;;;;18.67;12.45;;;;;;;23.75;66.89;100261.31;1936507;74;21607;-62
2021/07/19 03:46:33;;;;;;;23.92;18.23;;;;;;;23.89;66.89;100257.25;1937114;74;21123;-62
2021/07/19 03:49:03;;;;;;;24.23;15.78;;;;;;;24.11;66.99;100253.19;1936954;74;21507;-62
2021/07/19 03:51:32;;;;;;;18.90;13.48;;;;;;;24.32;66.77;100256.81;1937156;74;21500;-62
2021/07/19 03:54:03;;;;;;;19.15;15.30;;;;;;;24.46;66.34;100266.13;1936678;74;21128;-62
2021/07/19 03:56:33;;;;;;;21.20;13.25;;;;;;;24.58;66.11;100262.16;1937052;74;21575;-62
2021/07/19 03:59:03;;;;;;;22.10;13.70;;;;;;;24.68;65.83;100259.83;1937206;74;21480;-62
2021/07/19 04:01:37;;;;;;;21.80;13.22;;;;;;;24.80;65.71;100261.23;1937286;73;21064;-62
2021/07/19 04:04:08;;;;;;;20.77;14.35;;;;;;;24.90;65.54;100271.36;1937258;74;21041;-62
2021/07/19 04:06:39;;;;;;;21.57;12.37;;;;;;;24.99;65.45;100278.45;1935001;74;21152;-62
2021/07/19 04:09:09;;;;;;;19.48;12.13;;;;;;;25.11;65.35;100280.83;1937204;74;21146;-62
2021/07/19 04:11:40;;;;;;;19.98;13.38;;;;;;;25.24;65.22;100279.86;1931502;74;21107;-62
2021/07/19 04:14:11;;;;;;;21.93;14.70;;;;;;;25.40;65.16;100278.53;1895105;75;21547;-62
2021/07/19 04:16:42;;;;;;;18.27;13.68;;;;;;;25.64;64.81;100275.51;1895693;76;21066;-64
2021/07/19 04:19:13;;;;;;;25.10;16.40;;;;;;;25.92;64.18;100272.44;1871234;74;21591;-62
2021/07/19 04:21:42;;;;;;;27.50;15.78;;;;;;;26.11;63.79;100273.42;1895901;76;21038;-62
2021/07/19 04:24:13;;;;;;;19.55;14.47;;;;;;;26.32;63.40;100274.70;1895393;75;21165;-62
2021/07/19 04:26:43;;;;;;;23.10;13.68;;;;;;;26.57;62.94;100268.72;1895400;75;21210;-62
2021/07/19 04:29:14;;;;;;;18.57;13.25;;;;;;;26.85;62.44;100271.80;1895433;75;21082;-63
2021/07/19 04:31:45;;;;;;;20.60;14.38;;;;;;;27.15;62.03;100277.39;1895633;75;21544;-62
2021/07/19 04:34:18;;;;;;;20.10;13.75;;;;;;;27.36;61.05;100279.45;1894793;75;21541;-62
2021/07/19 04:36:47;;;;;;;21.17;14.47;;;;;;;27.51;60.71;100277.63;1894167;75;21066;-62
2021/07/19 04:39:16;;;;;;;22.85;13.60;;;;;;;27.68;60.54;100289.14;1895863;75;21034;-62
2021/07/19 04:41:45;;;;;;;26.68;17.50;;;;;;;27.94;60.29;100288.44;1895669;76;21132;-63
2021/07/19 04:44:14;;;;;;;27.07;17.52;;;;;;;28.15;59.65;100285.86;1895817;76;21183;-62
2021/07/19 04:46:43;;;;;;;24.02;15.35;;;;;;;28.37;59.42;100280.02;1895743;76;21086;-62
2021/07/19 04:49:12;;;;;;;22.27;15.50;;;;;;;28.60;59.01;100277.22;1895758;76;21010;-62
2021/07/19 04:51:41;;;;;;;24.55;14.53;;;;;;;28.81;58.86;100278.30;1895727;76;21007;-62
2021/07/19 04:54:11;;;;;;;17.80;13.20;;;;;;;29.08;58.64;100285.69;1895759;76;21128;-62
2021/07/19 04:56:42;;;;;;;23.60;14.05;;;;;;;29.17;58.24;100290.51;1895638;74;20998;-62
2021/07/19 04:59:13;;;;;;;17.10;13.58;;;;;;;29.24;58.51;100290.06;1895728;76;21046;-62
2021/07/19 05:01:42;;;;;;;19.50;13.68;;;;;;;29.41;58.71;100293.88;1895756;76;21018;-62
2021/07/19 05:04:13;;;;;;;20.45;14.60;;;;;;;29.64;58.46;100290.97;1895740;74;21481;-62
2021/07/19 05:06:47;;;;;;;18.12;12.65;;;;;;;29.76;58.34;100292.13;1895697;76;21074;-61
2021/07/19 05:09:18;;;;;;;20.88;14.20;;;;;;;29.83;58.50;100289.47;1895727;76;21030;-62
2021/07/19 05:11:48;;;;;;;19.23;13.98;;;;;;;29.83;58.70;100290.83;1895733;75;21067;-62
2021/07/19 05:14:17;;;;;;;22.58;14.73;;;;;;;29.98;58.52;100296.98;1934110;74;21069;-62
2021/07/19 05:16:48;;;;;;;18.62;14.07;;;;;;;30.13;58.48;100298.23;1937054;74;21553;-62
2021/07/19 05:19:17;;;;;;;23.32;14.73;;;;;;;30.29;58.17;100300.33;1937167;74;21094;-63
2021/07/19 05:21:46;;;;;;;20.90;15.13;;;;;;;30.42;57.85;100291.45;1937044;74;21500;-62
2021/07/19 05:24:14;;;;;;;18.90;14.40;;;;;;;30.47;57.95;100295.24;1937105;74;21110;-62
2021/07/19 05:26:45;;;;;;;25.23;14.87;;;;;;;30.65;57.82;100297.39;1937163;74;21076;-62
2021/07/19 05:29:14;;;;;;;23.62;14.75;;;;;;;30.83;57.61;100300.09;1937187;74;21091;-62
2021/07/19 05:31:42;;;;;;;21.97;15.23;;;;;;;31.21;57.40;100299.08;1937083;74;21065;-62
2021/07/19 05:34:11;;;;;;;22.37;14.40;;;;;;;31.52;56.30;100292.22;1937036;74;21591;-62
2021/07/19 05:36:40;;;;;;;18.73;14.43;;;;;;;31.69;55.51;100292.67;1937225;74;21027;-62
2021/07/19 05:39:09;;;;;;;22.40;14.95;;;;;;;31.77;54.62;100288.36;1937209;74;21060;-62
2021/07/19 05:41:38;;;;;;;25.20;15.28;;;;;;;31.78;54.82;100296.86;1937092;74;21060;-62
2021/07/19 05:44:10;;;;;;;25.48;16.00;;;;;;;31.76;54.62;100298.92;1937084;74;21077;-62
2021/07/19 05:46:38;;;;;;;21.50;15.95;;;;;;;31.68;54.54;100295.89;1936953;73;21104;-61
2021/07/19 05:49:07;;;;;;;21.77;15.55;;;;;;;31.71;54.58;100287.32;1937074;73;21044;-61
2021/07/19 05:51:36;;;;;;;22.67;14.47;;;;;;;31.79;54.85;100294.42;1937077;74;21139;-62
2021/07/19 05:54:05;;;;;;;22.02;13.70;;;;;;;32.06;54.55;100283.02;1937127;74;21017;-61
2021/07/19 05:56:35;;;;;;;18.60;13.93;;;;;;;32.26;53.63;100281.62;1937170;73;21149;-61
2021/07/19 05:59:04;;;;;;;24.05;14.47;;;;;;;32.66;52.86;100285.58;1937062;74;21029;-62
2021/07/19 06:01:33;;;;;;;22.58;15.13;;;;;;;32.85;51.36;100277.52;1937091;74;21542;-61
2021/07/19 06:04:02;;;;;;;23.12;13.78;;;;;;;32.89;51.76;100285.59;1937070;74;21001;-62
2021/07/19 06:06:32;;;;;;;19.98;14.23;;;;;;;33.03;51.48;100280.34;1937082;74;21037;-61
2021/07/19 06:09:00;;;;;;;19.73;14.40;;;;;;;33.19;50.18;100275.48;1937079;74;21029;-61
2021/07/19 06:11:29;;;;;;;17.40;12.82;;;;;;;33.44;49.90;100284.53;1937071;74;21106;-62
2021/07/19 06:13:58;;;;;;;19.48;15.05;;;;;;;33.53;48.63;100282.34;1917256;74;21132;-61
2021/07/19 06:16:27;;;;;;;26.68;15.53;;;;;;;33.46;48.77;100278.31;1895839;76;21151;-62
2021/07/19 06:18:55;;;;;;;22.48;13.98;;;;;;;33.61;48.88;100279.89;1895618;75;21062;-62
2021/07/19 06:21:24;;;;;;;20.65;14.23;;;;;;;33.82;48.89;100276.77;1895729;76;21486;-62
2021/07/19 06:23:53;;;;;;;23.10;14.95;;;;;;;34.01;47.94;100273.55;1895646;76;21113;-63
2021/07/19 06:26:22;;;;;;;19.60;13.90;;;;;;;33.96;48.38;100282.12;1895687;76;21121;-62
2021/07/19 06:28:51;;;;;;;21.57;13.60;;;;;;;34.41;47.78;100262.73;1895698;76;21454;-62
2021/07/19 06:31:20;;;;;;;21.87;14.68;;;;;;;34.41;47.78;100262.73;1895800;76;21042;-62
2021/07/19 06:33:49;;;;;;;18.25;13.20;;;;;;;34.60;48.35;100267.13;1895840;76;21035;-62
2021/07/19 06:36:18;;;;;;;15.80;11.88;;;;;;;35.04;47.73;100264.76;1895663;76;21066;-62
2021/07/19 06:38:46;;;;;;;19.25;14.35;;;;;;;35.17;46.30;100269.52;1895645;76;21137;-62
2021/07/19 06:41:15;;;;;;;22.77;14.25;;;;;;;35.11;45.75;100265.50;1895792;76;21030;-62
2021/07/19 06:43:44;;;;;;;17.10;12.55;;;;;;;35.18;46.32;100264.86;1895795;76;21050;-62
2021/07/19 06:46:13;;;;;;;25.12;15.30;;;;;;;35.27;46.27;100263.48;1895726;76;21062;-62
2021/07/19 06:48:42;;;;;;;17.77;13.55;;;;;;;35.23;45.89;100262.30;1895702;76;21058;-62
2021/07/19 06:51:11;;;;;;;21.75;13.48;;;;;;;35.40;45.76;100269.83;1895798;75;21461;-62
2021/07/19 06:53:40;;;;;;;19.45;13.32;;;;;;;35.34;45.56;100272.43;1895680;76;21034;-62
2021/07/19 06:56:09;;;;;;;20.90;12.78;;;;;;;35.34;45.41;100277.91;1895730;74;20999;-62
2021/07/19 06:58:38;;;;;;;20.00;13.05;;;;;;;35.47;45.05;100266.42;1895616;76;21093;-61
2021/07/19 07:01:07;;;;;;;16.40;14.23;;;;;;;35.70;45.11;100273.33;1895642;76;21054;-62
2021/07/19 07:03:35;;;;;;;19.75;12.37;;;;;;;35.99;43.84;100272.08;1895556;76;21116;-63
2021/07/19 07:06:04;;;;;;;19.02;12.15;;;;;;;35.88;43.76;100270.19;1895635;76;21155;-62
2021/07/19 07:08:33;;;;;;;14.63;11.18;;;;;;;35.92;43.87;100274.93;1890994;74;21161;-62
2021/07/19 07:11:02;;;;;;;19.32;12.33;;;;;;;36.14;43.33;100264.19;1863504;77;21050;-61
2021/07/19 07:13:32;;;;;;;23.87;13.03;;;;;;;36.12;42.88;100269.08;1863496;77;21050;-61
2021/07/19 07:16:00;;;;;;;17.45;11.85;;;;;;;36.20;42.76;100269.82;1884473;76;21509;-62
2021/07/19 07:18:29;;;;;;;22.45;12.00;;;;;;;36.46;42.73;100269.81;1884547;76;21085;-61
2021/07/19 07:20:58;;;;;;;21.02;11.08;;;;;;;36.67;41.64;100272.48;1884558;76;21143;-61
2021/07/19 07:23:26;;;;;;;21.35;12.82;;;;;;;36.87;41.28;100275.61;1884456;76;21057;-60
2021/07/19 07:25:56;;;;;;;15.78;11.63;;;;;;;36.79;40.99;100264.19;1884513;76;21041;-61
2021/07/19 07:28:25;;;;;;;17.25;11.43;;;;;;;36.76;41.11;100278.39;1884497;76;21066;-61
2021/07/19 07:30:55;;;;;;;18.30;12.23;;;;;;;36.90;41.49;100280.59;1884417;76;21491;-61
2021/07/19 07:33:25;;;;;;;17.85;11.15;;;;;;;36.92;41.58;100272.66;1884702;76;21068;-61
2021/07/19 07:35:54;;;;;;;14.23;11.12;;;;;;;36.94;41.00;100274.62;1884712;76;21162;-61
2021/07/19 07:38:22;;;;;;;15.32;10.58;;;;;;;36.91;40.55;100277.33;1884532;75;21041;-61
2021/07/19 07:40:52;;;;;;;18.40;11.65;;;;;;;36.81;41.00;100284.80;1884574;76;21081;-61
2021/07/19 07:43:21;;;;;;;12.98;10.13;;;;;;;36.90;40.56;100277.84;1884675;75;21077;-61
2021/07/19 07:45:50;;;;;;;14.23;9.70;;;;;;;37.03;40.38;100284.11;1884729;75;21492;-61
2021/07/19 07:48:20;;;;;;;17.32;10.63;;;;;;;37.26;39.89;100267.55;1884806;76;21445;-61
2021/07/19 07:50:48;;;;;;;17.75;10.88;;;;;;;37.10;39.83;100270.53;1884707;76;21037;-61
2021/07/19 07:53:27;;;;;;;;;;;;;;;;;;;;;
2021/07/19 07:56:07;;;;;;;17.00;10.50;;;;;;;37.19;39.86;100276.48;1887748;76;21671;-61
2021/07/19 07:58:36;;;;;;;16.37;10.68;;;;;;;37.34;39.32;100265.48;1887873;75;21111;-61
2021/07/19 08:01:04;;;;;;;21.17;10.70;;;;;;;37.28;39.62;100276.38;1887686;76;21044;-61
2021/07/19 08:03:33;;;;;;;15.45;10.75;;;;;;;37.37;39.78;100278.69;1887872;76;21066;-61
2021/07/19 08:06:02;;;;;;;14.00;10.78;;;;;;;37.47;39.50;100276.12;1887675;76;21083;-61
2021/07/19 08:08:30;;;;;;;17.70;10.53;;;;;;;37.48;40.01;100274.51;1887595;76;21040;-61
2021/07/19 08:10:59;;;;;;;15.63;10.10;;;;;;;37.88;39.71;100271.28;1887655;76;21041;-61
2021/07/19 08:13:28;;;;;;;14.07;9.48;;;;;;;38.14;39.50;100273.05;1887660;76;21126;-61
2021/07/19 08:15:57;;;;;;;22.93;11.18;;;;;;;38.43;38.64;100273.16;1887678;76;21420;-61
2021/07/19 08:18:25;;;;;;;13.62;10.65;;;;;;;38.51;38.00;100266.36;1887764;75;21102;-60
2021/07/19 08:20:55;;;;;;;16.82;10.93;;;;;;;38.62;37.97;100265.98;1887547;76;21138;-61
2021/07/19 08:23:23;;;;;;;14.68;9.85;;;;;;;38.65;37.90;100270.97;1887698;75;21033;-61
2021/07/19 08:25:52;;;;;;;14.00;10.85;;;;;;;38.48;37.98;100274.33;1887886;76;21527;-61
2021/07/19 08:28:21;;;;;;;12.07;9.55;;;;;;;38.35;38.43;100273.62;1887781;76;21067;-61
2021/07/19 08:30:50;;;;;;;14.15;8.93;;;;;;;38.33;38.83;100274.94;1887682;76;21134;-60
2021/07/19 08:33:18;;;;;;;16.48;10.18;;;;;;;38.51;38.58;100270.48;1887603;75;21048;-61
2021/07/19 08:35:49;;;;;;;17.02;9.75;;;;;;;38.51;38.67;100266.36;1887655;76;21029;-61
2021/07/19 08:38:18;;;;;;;16.20;9.70;;;;;;;38.71;38.63;100270.48;1888040;76;21032;-61
2021/07/19 08:40:48;;;;;;;15.38;9.93;;;;;;;38.84;38.33;100269.25;1887776;76;21758;-60
2021/07/19 09:16:50;;;;;;;13.38;9.38;;;;;;;38.33;39.51;100251.05;1960395;72;28532;-61
2021/07/19 09:47:39;;;;;;;17.90;9.95;;;;;;;37.81;40.37;100259.12;1978397;72;27932;-58
2021/07/19 09:50:12;;;;;;;;;;;;;;;37.88;40.70;100252.05;1956585;73;21492;-59
2021/07/19 09:52:44;;;;;;;15.95;9.65;;;;;;;38.05;40.23;100258.88;1953687;73;20415;-59
2021/07/19 09:55:16;;;;;;;;;;;;;;;38.03;40.15;100256.41;1956669;73;21088;-59
2021/07/19 09:57:48;;;;;;;13.78;9.40;;;;;;;37.88;40.49;100254.80;1953125;73;20116;-59
2021/07/19 10:00:20;;;;;;;13.13;9.43;;;;;;;37.90;40.61;100249.88;1953105;73;21078;-59
2021/07/19 10:02:47;;;;;;;11.73;9.33;;;;;;;38.03;40.60;100252.29;1953458;73;21168;-59
2021/07/19 10:05:24;;;;;;;14.87;9.03;;;;;;;38.00;40.31;100251.41;1953617;73;21550;-59
2021/07/19 10:07:54;;;;;;;16.67;9.50;;;;;;;38.01;40.58;100253.61;1952670;73;21116;-59
2021/07/19 10:10:39;;;;;;;13.85;10.25;;;;;;;37.74;40.70;100246.10;1953673;73;21473;-59
2021/07/19 10:13:09;;;;;;;15.13;8.83;;;;;;;37.51;41.64;100238.84;1953661;73;21144;-59
2021/07/19 10:15:40;;;;;;;16.15;11.12;;;;;;;37.59;41.48;100246.67;1953539;73;21031;-59
2021/07/19 10:18:11;;;;;;;15.35;10.05;;;;;;;37.58;41.60;100247.74;1953797;73;21023;-59
2021/07/19 10:20:42;;;;;;;14.18;9.35;;;;;;;37.62;41.64;100241.23;1953817;73;21059;-59
2021/07/19 10:23:13;;;;;;;14.73;9.50;;;;;;;37.76;41.31;100243.11;1953661;73;21020;-59
2021/07/19 10:25:42;;;;;;;12.87;9.27;;;;;;;37.87;41.44;100242.17;1953969;73;21035;-59
2021/07/19 10:28:13;;;;;;;18.35;10.40;;;;;;;37.75;41.42;100246.38;1953578;73;21528;-59
2021/07/19 10:30:42;;;;;;;11.90;9.23;;;;;;;37.69;41.16;100239.70;1953637;73;21039;-59
2021/07/19 10:33:11;;;;;;;16.93;9.93;;;;;;;37.61;41.71;100236.27;1953640;73;21035;-59
2021/07/19 10:35:40;;;;;;;18.32;9.23;;;;;;;37.46;41.81;100237.37;1953729;73;21027;-59
2021/07/19 10:38:12;;;;;;;14.15;9.95;;;;;;;37.29;42.18;100231.34;1953755;73;21093;-59
2021/07/19 10:40:42;;;;;;;16.10;8.18;;;;;;;37.22;42.80;100232.59;1953743;73;21090;-59
2021/07/19 10:43:14;;;;;;;13.53;8.90;;;;;;;37.19;42.49;100242.17;1953598;73;21473;-59
2021/07/19 10:45:50;;;;;;;15.58;9.18;;;;;;;36.93;43.08;100225.78;1953984;73;21035;-60
2021/07/19 10:48:30;;;;;;;13.38;9.48;;;;;;;36.74;43.14;100223.77;1962985;73;21482;-59
2021/07/19 10:51:01;;;;;;;15.32;9.30;;;;;;;36.71;44.27;100227.84;1962823;73;20999;-59
2021/07/19 10:53:33;;;;;;;14.10;10.07;;;;;;;36.86;43.48;100230.59;1963220;73;21062;-59
2021/07/19 10:56:07;;;;;;;16.23;9.45;;;;;;;36.79;43.50;100225.79;1963153;73;21101;-59
2021/07/19 10:58:42;;;;;;;14.18;9.73;;;;;;;36.74;44.07;100224.31;1962969;73;21121;-59
2021/07/19 11:01:31;;;;;;;12.58;9.75;;;;;;;36.43;44.14;100225.91;1962919;73;21165;-60
2021/07/19 11:04:03;;;;;;;13.58;9.68;;;;;;;36.13;44.86;100221.44;1943340;73;21039;-59
2021/07/19 11:06:35;;;;;;;;;;;;;;;35.78;45.75;100213.25;1963703;73;21116;-59
2021/07/19 11:09:06;;;;;;;10.30;8.60;;;;;;;35.79;45.53;100214.10;1963216;73;20112;-59
2021/07/19 11:11:43;;;;;;;16.10;9.50;;;;;;;35.87;45.50;100205.51;1961436;73;21519;-59
2021/07/19 11:14:19;;;;;;;12.37;8.65;;;;;;;35.84;45.88;100214.20;1962934;73;21104;-59
2021/07/19 11:16:50;;;;;;;14.70;9.23;;;;;;;35.77;45.66;100206.67;1962883;73;21089;-59
2021/07/19 11:19:39;;;;;;;19.23;9.43;;;;;;;35.58;45.87;100214.98;1962348;73;21043;-59
2021/07/19 11:22:15;;;;;;;16.80;10.93;;;;;;;35.29;46.88;100192.11;1961660;73;21505;-59
2021/07/19 11:24:49;;;;;;;21.42;9.60;;;;;;;35.36;47.02;100211.98;1962891;73;21051;-59
2021/07/19 11:27:22;;;;;;;15.55;10.05;;;;;;;35.37;47.44;100217.20;1962945;73;21488;-59
2021/07/19 11:29:51;;;;;;;;;;;;;;;35.51;47.47;100208.24;1965607;73;21039;-59
2021/07/19 11:32:31;;;;;;;14.40;8.78;;;;;;;35.66;46.78;100204.20;1962016;73;20112;-59
2021/07/19 11:35:14;;;;;;;16.90;9.23;;;;;;;35.74;47.10;100206.05;1963035;73;21011;-59
2021/07/19 11:37:48;;;;;;;12.35;9.15;;;;;;;35.87;46.89;100210.98;1962884;73;21030;-59
2021/07/19 11:40:32;;;;;;;17.23;9.55;;;;;;;35.92;47.04;100220.69;1963041;73;21485;-59
2021/07/19 11:43:24;;;;;;;14.63;9.20;;;;;;;35.99;46.90;100222.77;1962785;73;21027;-59
2021/07/19 11:45:54;;;;;;;15.95;9.53;;;;;;;35.89;46.96;100216.54;1960628;73;21120;-59
2021/07/19 11:48:25;;;;;;;12.37;8.70;;;;;;;35.80;47.26;100214.39;1953493;73;21123;-59
2021/07/19 11:50:58;;;;;;;15.32;9.90;;;;;;;35.83;45.94;100215.28;1952955;73;21125;-59
2021/07/19 11:53:27;;;;;;;13.65;9.48;;;;;;;35.91;43.14;100209.42;1953049;73;21023;-59
2021/07/19 11:55:57;;;;;;;13.40;9.13;;;;;;;35.94;44.99;100211.69;1952935;73;21067;-59
2021/07/19 11:58:26;;;;;;;19.73;9.88;;;;;;;35.96;45.41;100201.33;1951964;73;21031;-59
2021/07/19 12:00:55;;;;;;;17.73;10.58;;;;;;;35.88;45.26;100200.34;1952953;73;21441;-59
2021/07/19 12:03:29;;;;;;;18.15;10.55;;;;;;;35.89;43.90;100205.58;1952964;73;21112;-59
2021/07/19 12:05:59;;;;;;;14.10;8.40;;;;;;;35.97;41.25;100201.63;1952839;73;21513;-59
2021/07/19 12:08:36;;;;;;;14.10;8.63;;;;;;;36.05;42.17;100209.47;1952967;73;21523;-59
2021/07/19 12:11:07;;;;;;;15.50;9.10;;;;;;;36.04;44.35;100200.11;1953067;73;21023;-59
2021/07/19 12:13:39;;;;;;;16.87;8.43;;;;;;;35.94;45.25;100195.26;1953110;73;21121;-59
2021/07/19 12:16:09;;;;;;;14.85;7.92;;;;;;;35.83;46.09;100195.56;1953056;73;21034;-59
2021/07/19 12:18:40;;;;;;;13.48;8.48;;;;;;;35.85;46.24;100195.33;1953025;73;21106;-59
2021/07/19 12:21:15;;;;;;;15.15;9.00;;;;;;;35.81;45.28;100184.56;1953090;73;21129;-59
2021/07/19 12:23:47;;;;;;;14.73;9.13;;;;;;;35.81;41.51;100184.56;1952927;73;21039;-59
2021/07/19 12:26:37;;;;;;;16.52;8.53;;;;;;;35.80;39.04;100196.58;1953086;73;21023;-59
2021/07/19 12:29:16;;;;;;;16.57;8.83;;;;;;;35.77;38.89;100184.76;1952937;73;21071;-59
2021/07/19 12:31:47;;;;;;;12.28;7.92;;;;;;;35.82;38.74;100180.23;1951765;73;20999;-59
2021/07/19 12:34:18;;;;;;;14.83;8.05;;;;;;;35.82;38.74;100180.23;1952956;73;21031;-60